KSNA/SNA METAR and TAF weather

Enter ICAO airport designator
Station Type Date Time Source
KSNA METAR 2020/04/04 04:53 UTC NOAA

KSNA 040453Z 16003KT 10SM CLR 17/11 A2993 RMK AO2 SLP136 T01670111


Station Type Date Time Source
KSNA Decoded METAR 2020/04/04 04:53 UTC NOAA

SANTA ANA WAYNE ORANGE CTY, CA, United States (KSNA) 33-41N 117-52W 15M
Apr 04, 2020 - 12:53 AM EDT / 2020.04.04 0453 UTC
Wind: from the SSE (160 degrees) at 3 MPH (3 KT):0
Visibility: 10 mile(s):0
Sky conditions: clear
Temperature: 62.1 F (16.7 C)
Dew Point: 52.0 F (11.1 C)
Relative Humidity: 69%
Pressure (altimeter): 29.93 in. Hg (1013 hPa)
ob: KSNA 040453Z 16003KT 10SM CLR 17/11 A2993 RMK AO2 SLP136 T01670111
cycle: 5

Station Type Date Time Source
KSNA TAF 2020/04/03 18:24 UTC NOAA

TAF KSNA 031722Z 0318/0418 VRB04KT P6SM SCT025
FM032000 22009KT P6SM FEW035
FM040300 VRB05KT P6SM FEW025
FM041100 15006KT P6SM BKN025
FM041700 15006KT P6SM SCT030

Example: see airport list